sensor_id;sensor_type;location;lat;lon;timestamp;pressure;altitude;pressure_sealevel;temperature;humidity
5284;BME280;15377;48.540;9.268;2023-08-01T00:00:52;96502.72;;;17.89;100.00
5284;BME280;15377;48.540;9.268;2023-08-01T00:03:18;96504.56;;;18.07;100.00
5284;BME280;15377;48.540;9.268;2023-08-01T00:05:44;96497.28;;;18.04;100.00
5284;BME280;15377;48.540;9.268;2023-08-01T00:08:12;96486.44;;;17.93;100.00
5284;BME280;15377;48.540;9.268;2023-08-01T00:10:38;96467.81;;;17.88;100.00
5284;BME280;15377;48.540;9.268;2023-08-01T00:13:03;96462.25;;;17.88;100.00
5284;BME280;15377;48.540;9.268;2023-08-01T00:15:29;96458.59;;;17.93;100.00
5284;BME280;15377;48.540;9.268;2023-08-01T00:17:54;96438.97;;;17.78;100.00
5284;BME280;15377;48.540;9.268;2023-08-01T00:20:20;96453.69;;;17.86;100.00
5284;BME280;15377;48.540;9.268;2023-08-01T00:22:45;96423.03;;;17.79;100.00
5284;BME280;15377;48.540;9.268;2023-08-01T00:25:10;96423.22;;;17.81;100.00
5284;BME280;15377;48.540;9.268;2023-08-01T00:27:36;96413.25;;;17.65;100.00
5284;BME280;15377;48.540;9.268;2023-08-01T00:30:01;96418.47;;;17.68;100.00
5284;BME280;15377;48.540;9.268;2023-08-01T00:32:27;96434.50;;;17.75;100.00
5284;BME280;15377;48.540;9.268;2023-08-01T00:34:52;96416.09;;;17.72;100.00
5284;BME280;15377;48.540;9.268;2023-08-01T00:37:17;96420.59;;;17.75;100.00
5284;BME280;15377;48.540;9.268;2023-08-01T00:39:43;96413.09;;;17.70;100.00
5284;BME280;15377;48.540;9.268;2023-08-01T00:42:08;96397.84;;;17.64;100.00
5284;BME280;15377;48.540;9.268;2023-08-01T00:44:33;96394.13;;;17.61;100.00
5284;BME280;15377;48.540;9.268;2023-08-01T00:46:59;96399.19;;;17.70;100.00
5284;BME280;15377;48.540;9.268;2023-08-01T00:49:24;96400.50;;;17.69;100.00
5284;BME280;15377;48.540;9.268;2023-08-01T00:51:50;96372.25;;;17.65;100.00
5284;BME280;15377;48.540;9.268;2023-08-01T00:54:15;96363.72;;;17.63;100.00
5284;BME280;15377;48.540;9.268;2023-08-01T00:56:41;96392.66;;;17.88;100.00
5284;BME280;15377;48.540;9.268;2023-08-01T00:59:07;96378.41;;;17.92;100.00
5284;BME280;15377;48.540;9.268;2023-08-01T01:01:33;96376.03;;;17.96;100.00
5284;BME280;15377;48.540;9.268;2023-08-01T01:03:58;96399.09;;;18.24;100.00
5284;BME280;15377;48.540;9.268;2023-08-01T01:09:15;96403.22;;;18.59;100.00
5284;BME280;15377;48.540;9.268;2023-08-01T01:11:41;96402.75;;;18.75;100.00
5284;BME280;15377;48.540;9.268;2023-08-01T01:14:06;96400.94;;;18.85;100.00
5284;BME280;15377;48.540;9.268;2023-08-01T01:16:32;96401.22;;;19.02;100.00
5284;BME280;15377;48.540;9.268;2023-08-01T01:18:57;96415.22;;;19.17;100.00
5284;BME280;15377;48.540;9.268;2023-08-01T01:21:22;96403.72;;;19.20;100.00
5284;BME280;15377;48.540;9.268;2023-08-01T01:23:49;96409.72;;;19.32;100.00
5284;BME280;15377;48.540;9.268;2023-08-01T01:26:15;96378.44;;;19.26;100.00
5284;BME280;15377;48.540;9.268;2023-08-01T01:28:42;96400.06;;;19.48;100.00
5284;BME280;15377;48.540;9.268;2023-08-01T01:31:08;96385.91;;;19.46;100.00
5284;BME280;15377;48.540;9.268;2023-08-01T01:33:34;96392.06;;;19.52;100.00
5284;BME280;15377;48.540;9.268;2023-08-01T01:36:01;96386.31;;;19.57;100.00
5284;BME280;15377;48.540;9.268;2023-08-01T01:38:27;96366.97;;;19.44;100.00
5284;BME280;15377;48.540;9.268;2023-08-01T01:40:52;96368.41;;;19.38;100.00
5284;BME280;15377;48.540;9.268;2023-08-01T01:43:17;96358.75;;;19.24;100.00
5284;BME280;15377;48.540;9.268;2023-08-01T01:45:43;96355.34;;;19.18;100.00
5284;BME280;15377;48.540;9.268;2023-08-01T01:48:08;96364.31;;;19.24;100.00
5284;BME280;15377;48.540;9.268;2023-08-01T01:50:33;96353.16;;;19.24;100.00
5284;BME280;15377;48.540;9.268;2023-08-01T01:52:59;96358.75;;;19.24;100.00
5284;BME280;15377;48.540;9.268;2023-08-01T01:55:24;96351.66;;;19.30;100.00
5284;BME280;15377;48.540;9.268;2023-08-01T01:57:50;96357.25;;;19.30;100.00
5284;BME280;15377;48.540;9.268;2023-08-01T02:00:15;96351.06;;;19.17;100.00
5284;BME280;15377;48.540;9.268;2023-08-01T02:02:41;96345.81;;;19.06;100.00
5284;BME280;15377;48.540;9.268;2023-08-01T02:05:06;96328.31;;;18.98;100.00
5284;BME280;15377;48.540;9.268;2023-08-01T02:07:32;96339.16;;;19.09;100.00
5284;BME280;15377;48.540;9.268;2023-08-01T02:09:59;96320.72;;;18.98;100.00
5284;BME280;15377;48.540;9.268;2023-08-01T02:12:25;96318.31;;;19.10;100.00
5284;BME280;15377;48.540;9.268;2023-08-01T02:14:50;96325.38;;;19.18;100.00
5284;BME280;15377;48.540;9.268;2023-08-01T02:17:15;96322.47;;;19.24;100.00
5284;BME280;15377;48.540;9.268;2023-08-01T02:19:41;96311.31;;;19.31;100.00
5284;BME280;15377;48.540;9.268;2023-08-01T02:22:06;96316.16;;;19.46;100.00
5284;BME280;15377;48.540;9.268;2023-08-01T02:24:32;96316.72;;;19.52;100.00
5284;BME280;15377;48.540;9.268;2023-08-01T02:26:57;96315.63;;;19.62;100.00
5284;BME280;15377;48.540;9.268;2023-08-01T02:29:23;96332.91;;;19.76;100.00
5284;BME280;15377;48.540;9.268;2023-08-01T02:31:49;96311.72;;;19.73;100.00
5284;BME280;15377;48.540;9.268;2023-08-01T02:34:14;96325.28;;;19.84;100.00
5284;BME280;15377;48.540;9.268;2023-08-01T02:36:39;96314.28;;;19.86;100.00
5284;BME280;15377;48.540;9.268;2023-08-01T02:39:06;96322.47;;;19.99;100.00
5284;BME280;15377;48.540;9.268;2023-08-01T02:41:31;96337.03;;;20.05;100.00
5284;BME280;15377;48.540;9.268;2023-08-01T02:43:57;96315.97;;;20.04;100.00
5284;BME280;15377;48.540;9.268;2023-08-01T02:46:22;96321.94;;;20.08;100.00
5284;BME280;15377;48.540;9.268;2023-08-01T02:48:48;96306.13;;;20.03;100.00
5284;BME280;15377;48.540;9.268;2023-08-01T02:51:13;96313.56;;;20.08;100.00
5284;BME280;15377;48.540;9.268;2023-08-01T02:53:39;96323.44;;;20.09;100.00
5284;BME280;15377;48.540;9.268;2023-08-01T02:56:06;96313.38;;;20.06;100.00
5284;BME280;15377;48.540;9.268;2023-08-01T02:58:34;96318.59;;;20.09;100.00
5284;BME280;15377;48.540;9.268;2023-08-01T03:00:59;96309.28;;;20.07;100.00
5284;BME280;15377;48.540;9.268;2023-08-01T03:03:24;96325.13;;;20.12;100.00
5284;BME280;15377;48.540;9.268;2023-08-01T03:05:52;96339.44;;;20.16;100.00
5284;BME280;15377;48.540;9.268;2023-08-01T03:08:17;96327.91;;;20.12;100.00
5284;BME280;15377;48.540;9.268;2023-08-01T03:10:43;96335.16;;;20.15;100.00
5284;BME280;15377;48.540;9.268;2023-08-01T03:13:08;96345.94;;;20.18;100.00
5284;BME280;15377;48.540;9.268;2023-08-01T03:15:33;96328.25;;;20.16;100.00
5284;BME280;15377;48.540;9.268;2023-08-01T03:17:59;96329.00;;;20.24;100.00
5284;BME280;15377;48.540;9.268;2023-08-01T03:20:24;96326.41;;;20.18;100.00
5284;BME280;15377;48.540;9.268;2023-08-01T03:22:49;96334.56;;;20.24;100.00
5284;BME280;15377;48.540;9.268;2023-08-01T03:25:15;96323.41;;;20.24;100.00
5284;BME280;15377;48.540;9.268;2023-08-01T03:27:41;96330.28;;;20.30;100.00
5284;BME280;15377;48.540;9.268;2023-08-01T03:30:06;96328.41;;;20.33;100.00
5284;BME280;15377;48.540;9.268;2023-08-01T03:32:37;96342.38;;;20.33;100.00
5284;BME280;15377;48.540;9.268;2023-08-01T03:35:04;96337.56;;;20.26;100.00
5284;BME280;15377;48.540;9.268;2023-08-01T03:37:29;96320.47;;;20.14;100.00
5284;BME280;15377;48.540;9.268;2023-08-01T03:39:55;96330.47;;;20.25;100.00
5284;BME280;15377;48.540;9.268;2023-08-01T03:42:20;96314.28;;;20.16;100.00
5284;BME280;15377;48.540;9.268;2023-08-01T03:44:45;96327.88;;;20.27;100.00
5284;BME280;15377;48.540;9.268;2023-08-01T03:47:11;96329.91;;;20.34;100.00
5284;BME280;15377;48.540;9.268;2023-08-01T03:49:36;96316.50;;;20.25;100.00
5284;BME280;15377;48.540;9.268;2023-08-01T03:52:01;96306.66;;;20.16;100.00
5284;BME280;15377;48.540;9.268;2023-08-01T03:54:27;96328.44;;;20.25;100.00
5284;BME280;15377;48.540;9.268;2023-08-01T03:56:52;96329.00;;;20.24;100.00
5284;BME280;15377;48.540;9.268;2023-08-01T03:59:18;96315.22;;;20.18;100.00
5284;BME280;15377;48.540;9.268;2023-08-01T04:01:43;96334.56;;;20.24;100.00
5284;BME280;15377;48.540;9.268;2023-08-01T04:04:09;96320.84;;;20.11;100.00
5284;BME280;15377;48.540;9.268;2023-08-01T04:06:34;96333.09;;;20.23;100.00
5284;BME280;15377;48.540;9.268;2023-08-01T04:09:00;96334.94;;;20.20;100.00
5284;BME280;15377;48.540;9.268;2023-08-01T04:11:26;96325.25;;;20.21;100.00
5284;BME280;15377;48.540;9.268;2023-08-01T04:13:52;96341.28;;;20.21;100.00
5284;BME280;15377;48.540;9.268;2023-08-01T04:16:17;96339.06;;;20.12;100.00
5284;BME280;15377;48.540;9.268;2023-08-01T04:18:43;96350.97;;;20.12;100.00
5284;BME280;15377;48.540;9.268;2023-08-01T04:21:08;96344.66;;;20.12;100.00
5284;BME280;15377;48.540;9.268;2023-08-01T04:23:34;96340.38;;;20.11;100.00
5284;BME280;15377;48.540;9.268;2023-08-01T04:25:59;96334.25;;;20.05;100.00
5284;BME280;15377;48.540;9.268;2023-08-01T04:28:25;96325.66;;;20.03;100.00
5284;BME280;15377;48.540;9.268;2023-08-01T04:30:51;96315.78;;;20.02;100.00
5284;BME280;15377;48.540;9.268;2023-08-01T04:33:17;96323.06;;;20.05;100.00
5284;BME280;15377;48.540;9.268;2023-08-01T04:35:43;96318.97;;;20.06;100.00
5284;BME280;15377;48.540;9.268;2023-08-01T04:38:08;96299.22;;;20.04;100.00
5284;BME280;15377;48.540;9.268;2023-08-01T04:40:34;96299.59;;;20.08;100.00
5284;BME280;15377;48.540;9.268;2023-08-01T04:43:01;96285.06;;;20.09;100.00
5284;BME280;15377;48.540;9.268;2023-08-01T04:45:26;96283.97;;;20.05;100.00
5284;BME280;15377;48.540;9.268;2023-08-01T04:47:51;96274.63;;;20.10;100.00
5284;BME280;15377;48.540;9.268;2023-08-01T04:50:17;96234.03;;;20.09;100.00
5284;BME280;15377;48.540;9.268;2023-08-01T04:52:42;96212.09;;;20.05;100.00
5284;BME280;15377;48.540;9.268;2023-08-01T04:55:08;96208.38;;;20.03;100.00
5284;BME280;15377;48.540;9.268;2023-08-01T04:57:33;96213.56;;;20.14;100.00
5284;BME280;15377;48.540;9.268;2023-08-01T04:59:59;96184.91;;;20.06;100.00
5284;BME280;15377;48.540;9.268;2023-08-01T05:02:24;96152.50;;;20.03;100.00
5284;BME280;15377;48.540;9.268;2023-08-01T05:04:51;96140.22;;;20.06;100.00
5284;BME280;15377;48.540;9.268;2023-08-01T05:07:16;96123.47;;;20.06;100.00
5284;BME280;15377;48.540;9.268;2023-08-01T05:09:42;96129.41;;;20.10;100.00
5284;BME280;15377;48.540;9.268;2023-08-01T05:12:07;96129.22;;;20.08;100.00
5284;BME280;15377;48.540;9.268;2023-08-01T05:14:34;96119.38;;;20.07;100.00
5284;BME280;15377;48.540;9.268;2023-08-01T05:16:59;96128.28;;;20.13;100.00
5284;BME280;15377;48.540;9.268;2023-08-01T05:19:25;96147.06;;;20.20;100.00
5284;BME280;15377;48.540;9.268;2023-08-01T05:21:50;96153.19;;;20.26;100.00
5284;BME280;15377;48.540;9.268;2023-08-01T05:24:15;96148.84;;;20.32;100.00
5284;BME280;15377;48.540;9.268;2023-08-01T05:26:41;96155.56;;;20.29;100.00
5284;BME280;15377;48.540;9.268;2023-08-01T05:29:06;96175.66;;;20.35;100.00
5284;BME280;15377;48.540;9.268;2023-08-01T05:31:31;96165.41;;;20.38;100.00
5284;BME280;15377;48.540;9.268;2023-08-01T05:33:57;96140.09;;;20.36;100.00
5284;BME280;15377;48.540;9.268;2023-08-01T05:36:22;96160.13;;;20.49;100.00
5284;BME280;15377;48.540;9.268;2023-08-01T05:38:47;96139.63;;;20.47;100.00
5284;BME280;15377;48.540;9.268;2023-08-01T05:41:13;96141.66;;;20.54;100.00
5284;BME280;15377;48.540;9.268;2023-08-01T05:43:38;96152.03;;;20.61;100.00
5284;BME280;15377;48.540;9.268;2023-08-01T05:46:03;96154.78;;;20.68;100.00
5284;BME280;15377;48.540;9.268;2023-08-01T05:48:29;96164.25;;;20.73;100.00
5284;BME280;15377;48.540;9.268;2023-08-01T05:50:54;96153.06;;;20.73;100.00
5284;BME280;15377;48.540;9.268;2023-08-01T05:53:21;96163.84;;;20.76;100.00
5284;BME280;15377;48.540;9.268;2023-08-01T05:55:47;96164.22;;;20.80;100.00
5284;BME280;15377;48.540;9.268;2023-08-01T05:58:12;96171.84;;;20.87;100.00
5284;BME280;15377;48.540;9.268;2023-08-01T06:00:38;96167.78;;;20.81;100.00
5284;BME280;15377;48.540;9.268;2023-08-01T06:03:03;96164.38;;;20.90;100.00
5284;BME280;15377;48.540;9.268;2023-08-01T06:05:28;96184.88;;;20.85;100.00
5284;BME280;15377;48.540;9.268;2023-08-01T06:07:54;96173.53;;;20.83;100.00
5284;BME280;15377;48.540;9.268;2023-08-01T06:10:19;96199.81;;;20.80;100.00
5284;BME280;15377;48.540;9.268;2023-08-01T06:12:45;96205.06;;;20.76;100.00
5284;BME280;15377;48.540;9.268;2023-08-01T06:15:10;96196.94;;;20.63;100.00
5284;BME280;15377;48.540;9.268;2023-08-01T06:17:35;96193.28;;;20.53;100.00
5284;BME280;15377;48.540;9.268;2023-08-01T06:20:01;96184.75;;;20.43;100.00
5284;BME280;15377;48.540;9.268;2023-08-01T06:22:29;96202.97;;;20.52;100.00
5284;BME280;15377;48.540;9.268;2023-08-01T06:24:54;96203.75;;;20.45;100.00
5284;BME280;15377;48.540;9.268;2023-08-01T06:27:20;96198.00;;;20.43;100.00
5284;BME280;15377;48.540;9.268;2023-08-01T06:29:45;96197.00;;;20.48;100.00
5284;BME280;15377;48.540;9.268;2023-08-01T06:32:11;96205.63;;;20.42;100.00
5284;BME280;15377;48.540;9.268;2023-08-01T06:34:36;96202.66;;;20.33;100.00
5284;BME280;15377;48.540;9.268;2023-08-01T06:37:02;96204.19;;;20.34;100.00
5284;BME280;15377;48.540;9.268;2023-08-01T06:39:29;96214.59;;;20.33;100.00
5284;BME280;15377;48.540;9.268;2023-08-01T06:41:54;96221.28;;;20.38;100.00
5284;BME280;15377;48.540;9.268;2023-08-01T06:44:20;96216.84;;;20.35;100.00
5284;BME280;15377;48.540;9.268;2023-08-01T06:46:45;96203.63;;;20.28;100.00
5284;BME280;15377;48.540;9.268;2023-08-01T06:49:11;96228.78;;;20.28;100.00
5284;BME280;15377;48.540;9.268;2023-08-01T06:51:36;96222.88;;;20.16;100.00
5284;BME280;15377;48.540;9.268;2023-08-01T06:54:01;96225.13;;;20.10;100.00
5284;BME280;15377;48.540;9.268;2023-08-01T06:56:27;96201.66;;;20.06;100.00
5284;BME280;15377;48.540;9.268;2023-08-01T06:58:52;96235.53;;;20.10;100.00
5284;BME280;15377;48.540;9.268;2023-08-01T07:01:18;96225.88;;;19.96;100.00
5284;BME280;15377;48.540;9.268;2023-08-01T07:03:44;96220.25;;;20.03;100.00
5284;BME280;15377;48.540;9.268;2023-08-01T07:06:10;96218.44;;;20.06;100.00
5284;BME280;15377;48.540;9.268;2023-08-01T07:08:36;96217.66;;;20.13;100.00
5284;BME280;15377;48.540;9.268;2023-08-01T07:11:01;96242.59;;;20.26;100.00
5284;BME280;15377;48.540;9.268;2023-08-01T07:13:27;96250.75;;;20.24;100.00
5284;BME280;15377;48.540;9.268;2023-08-01T07:15:53;96251.53;;;20.17;100.00
5284;BME280;15377;48.540;9.268;2023-08-01T07:18:19;96261.94;;;20.24;100.00
5284;BME280;15377;48.540;9.268;2023-08-01T07:20:44;96264.00;;;20.23;100.00
5284;BME280;15377;48.540;9.268;2023-08-01T07:23:09;96258.22;;;20.21;100.00
5284;BME280;15377;48.540;9.268;2023-08-01T07:25:35;96256.91;;;20.30;100.00
5284;BME280;15377;48.540;9.268;2023-08-01T07:28:02;96253.88;;;20.35;100.00
5284;BME280;15377;48.540;9.268;2023-08-01T07:30:27;96246.44;;;20.45;100.00
5284;BME280;15377;48.540;9.268;2023-08-01T07:32:53;96254.16;;;20.62;100.00
5284;BME280;15377;48.540;9.268;2023-08-01T07:35:18;96249.28;;;20.70;100.00
5284;BME280;15377;48.540;9.268;2023-08-01T07:37:44;96233.66;;;20.67;100.00
5284;BME280;15377;48.540;9.268;2023-08-01T07:40:09;96253.56;;;20.71;100.00
5284;BME280;15377;48.540;9.268;2023-08-01T07:42:35;96254.88;;;20.70;100.00
5284;BME280;15377;48.540;9.268;2023-08-01T07:45:00;96261.78;;;20.69;100.00
5284;BME280;15377;48.540;9.268;2023-08-01T07:47:26;96252.50;;;20.59;100.00
5284;BME280;15377;48.540;9.268;2023-08-01T07:49:52;96264.03;;;20.63;100.00
5284;BME280;15377;48.540;9.268;2023-08-01T07:52:17;96258.16;;;20.44;100.00
5284;BME280;15377;48.540;9.268;2023-08-01T07:54:44;96245.38;;;20.26;100.00
5284;BME280;15377;48.540;9.268;2023-08-01T07:57:10;96251.19;;;20.13;100.00
5284;BME280;15377;48.540;9.268;2023-08-01T07:59:36;96258.25;;;20.14;100.00
5284;BME280;15377;48.540;9.268;2023-08-01T08:02:01;96263.13;;;20.06;100.00
5284;BME280;15377;48.540;9.268;2023-08-01T08:04:27;96269.09;;;19.80;100.00
5284;BME280;15377;48.540;9.268;2023-08-01T08:06:52;96259.97;;;19.34;100.00
5284;BME280;15377;48.540;9.268;2023-08-01T08:09:20;96239.97;;;18.71;100.00
5284;BME280;15377;48.540;9.268;2023-08-01T08:11:47;96254.38;;;18.47;100.00
5284;BME280;15377;48.540;9.268;2023-08-01T08:14:13;96249.78;;;18.21;100.00
5284;BME280;15377;48.540;9.268;2023-08-01T08:16:40;96248.53;;;17.94;100.00
5284;BME280;15377;48.540;9.268;2023-08-01T08:19:05;96209.97;;;17.63;100.00
5284;BME280;15377;48.540;9.268;2023-08-01T08:21:30;96179.75;;;17.18;100.00
5284;BME280;15377;48.540;9.268;2023-08-01T08:23:56;96190.59;;;17.29;100.00
5284;BME280;15377;48.540;9.268;2023-08-01T08:26:21;96178.56;;;17.06;100.00
5284;BME280;15377;48.540;9.268;2023-08-01T08:28:47;96182.63;;;17.05;100.00
5284;BME280;15377;48.540;9.268;2023-08-01T08:31:12;96185.09;;;16.88;100.00
5284;BME280;15377;48.540;9.268;2023-08-01T08:33:37;96187.38;;;16.77;100.00
5284;BME280;15377;48.540;9.268;2023-08-01T08:36:03;96196.13;;;16.81;100.00
5284;BME280;15377;48.540;9.268;2023-08-01T08:38:28;96203.25;;;16.89;100.00
5284;BME280;15377;48.540;9.268;2023-08-01T08:41:13;96219.63;;;17.00;100.00
5284;BME280;15377;48.540;9.268;2023-08-01T08:43:39;96220.06;;;17.04;100.00
5284;BME280;15377;48.540;9.268;2023-08-01T08:46:08;96230.84;;;17.08;100.00
5284;BME280;15377;48.540;9.268;2023-08-01T08:48:34;96209.81;;;16.99;100.00
5284;BME280;15377;48.540;9.268;2023-08-01T08:51:01;96212.44;;;17.05;100.00
5284;BME280;15377;48.540;9.268;2023-08-01T08:53:27;96212.41;;;16.97;100.00
5284;BME280;15377;48.540;9.268;2023-08-01T08:55:52;96211.50;;;17.02;100.00
5284;BME280;15377;48.540;9.268;2023-08-01T08:58:18;96206.63;;;16.95;100.00
5284;BME280;15377;48.540;9.268;2023-08-01T09:00:44;96209.53;;;17.10;100.00
5284;BME280;15377;48.540;9.268;2023-08-01T09:03:09;96193.19;;;17.07;100.00
5284;BME280;15377;48.540;9.268;2023-08-01T09:05:44;96213.41;;;17.07;100.00
5284;BME280;15377;48.540;9.268;2023-08-01T09:08:16;96222.34;;;17.13;100.00
5284;BME280;15377;48.540;9.268;2023-08-01T09:10:43;96219.22;;;17.17;100.00
5284;BME280;15377;48.540;9.268;2023-08-01T09:13:08;96206.47;;;17.21;100.00
5284;BME280;15377;48.540;9.268;2023-08-01T09:15:35;96193.13;;;17.20;100.00
5284;BME280;15377;48.540;9.268;2023-08-01T09:18:06;96210.41;;;17.46;100.00
5284;BME280;15377;48.540;9.268;2023-08-01T09:20:48;96183.69;;;17.43;100.00
5284;BME280;15377;48.540;9.268;2023-08-01T09:23:16;96204.19;;;17.61;100.00
5284;BME280;15377;48.540;9.268;2023-08-01T09:25:42;96195.66;;;17.59;100.00
5284;BME280;15377;48.540;9.268;2023-08-01T09:28:17;96211.66;;;17.73;100.00
5284;BME280;15377;48.540;9.268;2023-08-01T09:30:52;96212.06;;;17.77;100.00
5284;BME280;15377;48.540;9.268;2023-08-01T09:33:19;96206.66;;;18.07;100.00
5284;BME280;15377;48.540;9.268;2023-08-01T09:35:44;96206.81;;;18.37;100.00
5284;BME280;15377;48.540;9.268;2023-08-01T09:38:12;96218.38;;;18.56;100.00
5284;BME280;15377;48.540;9.268;2023-08-01T09:40:39;96213.22;;;18.68;100.00
5284;BME280;15377;48.540;9.268;2023-08-01T09:43:06;96225.84;;;18.69;100.00
5284;BME280;15377;48.540;9.268;2023-08-01T09:45:31;96225.84;;;18.61;100.00
5284;BME280;15377;48.540;9.268;2023-08-01T09:47:59;96233.09;;;18.64;100.00
5284;BME280;15377;48.540;9.268;2023-08-01T09:50:25;96218.16;;;18.47;100.00
5284;BME280;15377;48.540;9.268;2023-08-01T09:52:51;96235.63;;;18.47;100.00
5284;BME280;15377;48.540;9.268;2023-08-01T09:55:32;96223.16;;;18.41;100.00
5284;BME280;15377;48.540;9.268;2023-08-01T09:57:59;96216.50;;;18.51;100.00
5284;BME280;15377;48.540;9.268;2023-08-01T10:00:28;96236.22;;;18.53;100.00
5284;BME280;15377;48.540;9.268;2023-08-01T10:02:59;96243.66;;;18.58;100.00
5284;BME280;15377;48.540;9.268;2023-08-01T10:05:29;96237.50;;;18.52;100.00
5284;BME280;15377;48.540;9.268;2023-08-01T10:08:01;96234.53;;;18.50;100.00
5284;BME280;15377;48.540;9.268;2023-08-01T10:10:28;96230.97;;;18.42;100.00
5284;BME280;15377;48.540;9.268;2023-08-01T10:12:54;96252.34;;;18.47;100.00
5284;BME280;15377;48.540;9.268;2023-08-01T10:15:21;96256.56;;;18.33;100.00
5284;BME280;15377;48.540;9.268;2023-08-01T10:17:46;96251.00;;;18.33;100.00
5284;BME280;15377;48.540;9.268;2023-08-01T10:20:12;96244.22;;;18.21;100.00
5284;BME280;15377;48.540;9.268;2023-08-01T10:22:39;96262.63;;;18.24;100.00
5284;BME280;15377;48.540;9.268;2023-08-01T10:25:07;96254.63;;;18.28;100.00
5284;BME280;15377;48.540;9.268;2023-08-01T10:27:34;96241.94;;;18.12;100.00
5284;BME280;15377;48.540;9.268;2023-08-01T10:30:02;96252.72;;;18.16;100.00
5284;BME280;15377;48.540;9.268;2023-08-01T10:32:37;96245.84;;;18.09;100.00
5284;BME280;15377;48.540;9.268;2023-08-01T10:35:03;96249.31;;;18.02;100.00
5284;BME280;15377;48.540;9.268;2023-08-01T10:37:42;96261.25;;;18.10;100.00
5284;BME280;15377;48.540;9.268;2023-08-01T10:40:08;96249.38;;;18.10;100.00
5284;BME280;15377;48.540;9.268;2023-08-01T10:42:44;96266.31;;;18.19;100.00
5284;BME280;15377;48.540;9.268;2023-08-01T10:45:21;96249.31;;;18.30;100.00
5284;BME280;15377;48.540;9.268;2023-08-01T10:47:48;96251.66;;;18.62;100.00
5284;BME280;15377;48.540;9.268;2023-08-01T10:50:14;96252.34;;;19.12;100.00
5284;BME280;15377;48.540;9.268;2023-08-01T10:52:41;96252.19;;;19.63;100.00
5284;BME280;15377;48.540;9.268;2023-08-01T10:55:07;96253.44;;;20.07;100.00
5284;BME280;15377;48.540;9.268;2023-08-01T10:57:35;96275.97;;;20.56;100.00
5284;BME280;15377;48.540;9.268;2023-08-01T11:00:00;96295.28;;;20.76;100.00
5284;BME280;15377;48.540;9.268;2023-08-01T11:02:27;96291.03;;;20.68;100.00
5284;BME280;15377;48.540;9.268;2023-08-01T11:05:03;96309.34;;;20.61;100.00
5284;BME280;15377;48.540;9.268;2023-08-01T11:07:29;96299.88;;;20.49;100.00
5284;BME280;15377;48.540;9.268;2023-08-01T11:10:08;96310.78;;;20.70;100.00
5284;BME280;15377;48.540;9.268;2023-08-01T11:12:36;96309.22;;;20.91;100.00
5284;BME280;15377;48.540;9.268;2023-08-01T11:15:03;96300.41;;;21.02;100.00
5284;BME280;15377;48.540;9.268;2023-08-01T11:17:28;96296.31;;;20.96;100.00
5284;BME280;15377;48.540;9.268;2023-08-01T11:20:04;96310.84;;;21.58;100.00
5284;BME280;15377;48.540;9.268;2023-08-01T11:22:31;96317.53;;;21.63;100.00
5284;BME280;15377;48.540;9.268;2023-08-01T11:24:57;96321.09;;;21.88;100.00
5284;BME280;15377;48.540;9.268;2023-08-01T11:27:22;96300.66;;;21.78;100.00
5284;BME280;15377;48.540;9.268;2023-08-01T11:29:48;96314.19;;;22.47;100.00
5284;BME280;15377;48.540;9.268;2023-08-01T11:32:13;96311.69;;;23.55;100.00
5284;BME280;15377;48.540;9.268;2023-08-01T11:34:40;96328.84;;;24.59;100.00
5284;BME280;15377;48.540;9.268;2023-08-01T11:37:17;96334.34;;;24.02;100.00
5284;BME280;15377;48.540;9.268;2023-08-01T11:39:44;96335.75;;;23.22;100.00
5284;BME280;15377;48.540;9.268;2023-08-01T11:42:16;96312.03;;;22.72;100.00
5284;BME280;15377;48.540;9.268;2023-08-01T11:44:42;96331.88;;;22.33;100.00
5284;BME280;15377;48.540;9.268;2023-08-01T11:47:13;96322.97;;;22.10;100.00
5284;BME280;15377;48.540;9.268;2023-08-01T11:49:38;96343.09;;;21.91;100.00
5284;BME280;15377;48.540;9.268;2023-08-01T11:52:04;96340.72;;;21.56;100.00
5284;BME280;15377;48.540;9.268;2023-08-01T11:54:30;96338.59;;;21.39;100.00
5284;BME280;15377;48.540;9.268;2023-08-01T11:57:00;96349.94;;;21.49;100.00
5284;BME280;15377;48.540;9.268;2023-08-01T11:59:26;96343.69;;;21.58;100.00
5284;BME280;15377;48.540;9.268;2023-08-01T12:01:51;96352.72;;;22.64;100.00
5284;BME280;15377;48.540;9.268;2023-08-01T12:04:25;96365.28;;;24.12;100.00
5284;BME280;15377;48.540;9.268;2023-08-01T12:06:50;96355.28;;;25.51;100.00
5284;BME280;15377;48.540;9.268;2023-08-01T12:09:16;96348.84;;;26.40;100.00
5284;BME280;15377;48.540;9.268;2023-08-01T12:11:41;96368.34;;;26.99;100.00
5284;BME280;15377;48.540;9.268;2023-08-01T12:14:12;96372.00;;;26.39;100.00
5284;BME280;15377;48.540;9.268;2023-08-01T12:16:39;96375.00;;;25.51;100.00
5284;BME280;15377;48.540;9.268;2023-08-01T12:19:07;96390.47;;;24.74;100.00
5284;BME280;15377;48.540;9.268;2023-08-01T12:21:33;96383.72;;;23.43;100.00
5284;BME280;15377;48.540;9.268;2023-08-01T12:23:58;96386.59;;;23.09;100.00
5284;BME280;15377;48.540;9.268;2023-08-01T12:26:24;96369.94;;;22.77;100.00
5284;BME280;15377;48.540;9.268;2023-08-01T12:28:49;96371.84;;;22.75;100.00
5284;BME280;15377;48.540;9.268;2023-08-01T12:31:16;96372.66;;;22.51;100.00
5284;BME280;15377;48.540;9.268;2023-08-01T12:33:42;96370.31;;;23.07;100.00
5284;BME280;15377;48.540;9.268;2023-08-01T12:36:08;96368.13;;;23.49;100.00
5284;BME280;15377;48.540;9.268;2023-08-01T12:38:33;96361.00;;;23.22;100.00
5284;BME280;15377;48.540;9.268;2023-08-01T12:40:58;96381.28;;;23.83;100.00
5284;BME280;15377;48.540;9.268;2023-08-01T12:43:24;96374.75;;;25.19;100.00
5284;BME280;15377;48.540;9.268;2023-08-01T12:45:49;96361.50;;;26.81;97.82
5284;BME280;15377;48.540;9.268;2023-08-01T12:48:14;96354.66;;;27.60;91.34
5284;BME280;15377;48.540;9.268;2023-08-01T12:50:44;96366.56;;;27.36;91.15
5284;BME280;15377;48.540;9.268;2023-08-01T12:53:11;96366.44;;;26.50;96.66
5284;BME280;15377;48.540;9.268;2023-08-01T12:55:36;96370.47;;;25.27;100.00
5284;BME280;15377;48.540;9.268;2023-08-01T12:58:01;96375.81;;;24.21;98.91